ADDS METAR Data INFO
IDs: Format: Raw Decoded Include TAF

Data at: 1029 UTC 24 Jun 2018

KPAE 240953Z AUTO 34006KT 10SM OVC003 12/11 A3012 RMK AO2 SLP198 T01170111

KPAE 240913Z 2409/2506 33006KT P6SM SCT004
  TEMPO 2409/2413 BKN003
  FM241300 VRB04KT 6SM BR BKN003
  FM241600 VRB04KT P6SM FEW004 SCT200
  FM242000 23008KT P6SM SCT050 SCT120 BKN200
  FM250300 28008KT P6SM BKN040 BKN120
  FM250500 21008KT P6SM -RA OVC040


KAWO 240956Z AUTO 32003KT 9SM CLR 11/10 A3012 RMK AO2 SLP204 T01060100
No TAF found for KAWO

KBFI 240953Z 31004KT 10SM CLR 14/11 A3011 RMK AO2 SLP194 T01390111 $

KBFI 240539Z 2406/2506 VRB03KT P6SM SKC
  FM242000 33007KT P6SM SCT050 SCT120 BKN200
  FM250300 21007KT P6SM BKN040 BKN120
  FM250500 18008KT P6SM -RA OVC040


KRNT 240953Z AUTO 00000KT 10SM CLR 14/12 A3010 RMK AO2 SLP198 T01390122
No TAF found for KRNT

KSEA 240953Z 35004KT 10SM CLR 14/12 A3011 RMK AO2 SLP201 T01390117

KSEA 240911Z 2409/2512 VRB03KT P6SM SKC
  FM242000 33007KT P6SM SCT050 SCT120 BKN200
  FM250300 21007KT P6SM BKN040 BKN120
  FM250500 18008KT P6SM -RA OVC040